createdAt,value
2019-04-10T00:00:39.070Z,7.42
2019-04-10T00:02:31.333Z,7.45
2019-04-10T00:03:34.442Z,7.40
2019-04-10T00:05:23.992Z,7.38
2019-04-10T00:06:24.044Z,7.35
2019-04-10T00:08:17.857Z,7.31
2019-04-10T00:09:17.091Z,7.28
2019-04-10T00:11:10.184Z,7.13
2019-04-10T00:12:10.125Z,7.14
2019-04-10T00:14:03.125Z,7.21
2019-04-10T00:15:03.166Z,7.11
2019-04-10T00:16:56.461Z,7.06
2019-04-10T00:17:56.198Z,7.07
2019-04-10T00:19:49.195Z,7.10
2019-04-10T00:20:49.249Z,7.06
2019-04-10T00:22:42.378Z,7.05
2019-04-10T00:23:42.268Z,6.96
2019-04-10T00:25:35.266Z,6.99
2019-04-10T00:26:35.302Z,7.02
2019-04-10T00:28:28.290Z,6.97
2019-04-10T00:29:28.345Z,6.95
2019-04-10T00:31:22.869Z,6.92
2019-04-10T00:32:21.891Z,6.87
2019-04-10T00:34:15.649Z,6.88
2019-04-10T00:35:15.080Z,6.85
2019-04-10T00:37:20.271Z,6.85
2019-04-10T00:38:07.958Z,6.84
2019-04-10T00:40:01.214Z,6.85
2019-04-10T00:41:00.993Z,6.81
2019-04-10T00:42:54.024Z,6.74
2019-04-10T00:43:55.158Z,6.78
2019-04-10T00:45:47.016Z,6.78
2019-04-10T00:46:47.064Z,6.72
2019-04-10T00:48:40.063Z,6.63
2019-04-10T00:49:40.098Z,6.63
2019-04-10T00:51:33.194Z,6.64
2019-04-10T00:52:33.135Z,6.64
2019-04-10T00:54:26.134Z,6.57
2019-04-10T00:55:26.169Z,6.66
2019-04-10T00:57:19.195Z,6.52
2019-04-10T00:58:20.322Z,6.59
2019-04-10T01:00:12.798Z,6.57
2019-04-10T01:01:12.239Z,6.51
2019-04-10T01:03:05.261Z,6.51
2019-04-10T01:04:06.774Z,6.51
2019-04-10T01:05:58.288Z,6.44
2019-04-10T01:06:58.324Z,6.45
2019-04-10T01:08:51.322Z,6.36
2019-04-10T01:09:51.354Z,6.33
2019-04-10T01:11:45.463Z,6.28
2019-04-10T01:12:44.407Z,6.27
2019-04-10T01:14:38.064Z,6.31
2019-04-10T01:15:38.505Z,6.19
2019-04-10T01:17:31.246Z,6.28
2019-04-10T01:18:31.064Z,6.27
2019-04-10T01:20:23.804Z,6.27
2019-04-10T01:21:23.515Z,6.22
2019-04-10T01:23:16.539Z,6.17
2019-04-10T01:24:17.483Z,6.02
2019-04-10T01:26:10.515Z,6.09
2019-04-10T01:27:09.783Z,6.07
2019-04-10T01:29:02.980Z,6.05
2019-04-10T01:30:02.620Z,6.01
2019-04-10T01:31:56.280Z,5.98
2019-04-10T01:32:56.540Z,5.91
2019-04-10T01:34:49.693Z,5.91
2019-04-10T01:35:49.209Z,5.93
2019-04-10T01:37:49.456Z,5.89
2019-04-10T01:38:42.242Z,5.73
2019-04-10T01:40:35.277Z,5.80
2019-04-10T01:41:36.206Z,5.80
2019-04-10T01:43:28.284Z,5.73
2019-04-10T01:44:28.898Z,5.64
2019-04-10T01:46:22.211Z,5.62
2019-04-10T01:47:21.396Z,5.64
2019-04-10T01:49:14.328Z,5.64
2019-04-10T01:50:14.517Z,5.64
2019-04-10T01:52:07.357Z,5.62
2019-04-10T01:53:07.409Z,5.54
2019-04-10T01:55:00.407Z,5.65
2019-04-10T01:56:00.457Z,5.61
2019-04-10T01:57:53.426Z,5.53
2019-04-10T01:58:53.752Z,5.53
2019-04-10T02:00:46.476Z,5.41
2019-04-10T02:01:46.512Z,5.57
2019-04-10T02:03:40.366Z,5.46
2019-04-10T02:04:39.636Z,5.47
2019-04-10T02:06:33.550Z,5.43
2019-04-10T02:07:32.598Z,5.44
2019-04-10T02:09:25.701Z,5.43
2019-04-10T02:10:25.891Z,5.46
2019-04-10T02:12:18.699Z,5.41
2019-04-10T02:13:19.163Z,5.30
2019-04-10T02:15:14.148Z,5.25
2019-04-10T02:16:11.695Z,5.32
2019-04-10T02:18:05.399Z,5.29
2019-04-10T02:19:04.736Z,5.29
2019-04-10T02:20:57.724Z,5.18
2019-04-10T02:21:58.241Z,5.15
2019-04-10T02:23:50.740Z,5.17
2019-04-10T02:24:51.485Z,5.18
2019-04-10T02:26:43.784Z,5.14
2019-04-10T02:27:44.720Z,5.11
2019-04-10T02:29:36.824Z,5.07
2019-04-10T02:30:39.018Z,5.10
2019-04-10T02:32:29.883Z,5.14
2019-04-10T02:33:31.284Z,5.02
2019-04-10T02:35:24.529Z,5.02
2019-04-10T02:36:23.517Z,4.99
2019-04-10T02:38:33.757Z,4.94
2019-04-10T02:39:25.608Z,4.94
2019-04-10T02:41:10.763Z,4.93
2019-04-10T02:42:10.148Z,4.93
2019-04-10T02:44:02.926Z,4.97
2019-04-10T02:45:02.640Z,4.93
2019-04-10T02:46:57.331Z,4.77
2019-04-10T02:47:55.312Z,4.87
2019-04-10T02:49:49.259Z,4.90
2019-04-10T02:50:49.310Z,4.73
2019-04-10T02:52:42.955Z,4.78
2019-04-10T02:53:41.166Z,4.84
2019-04-10T02:55:35.544Z,4.68
2019-04-10T02:56:34.373Z,4.66
2019-04-10T02:58:27.161Z,4.60
2019-04-10T02:59:27.275Z,4.62
2019-04-10T03:01:20.168Z,4.63
2019-04-10T03:02:20.325Z,4.62
2019-04-10T03:04:13.387Z,4.60
2019-04-10T03:05:13.629Z,4.59
2019-04-10T03:07:07.711Z,4.49
2019-04-10T03:08:07.086Z,4.56
2019-04-10T03:10:08.942Z,4.52
2019-04-10T03:11:04.014Z,4.49
2019-04-10T03:12:52.751Z,4.44
2019-04-10T03:13:53.453Z,4.49
2019-04-10T03:15:45.340Z,4.37
2019-04-10T03:16:45.742Z,4.38
2019-04-10T03:18:39.121Z,4.48
2019-04-10T03:19:38.426Z,4.44
2019-04-10T03:21:31.420Z,4.34
2019-04-10T03:22:32.468Z,4.37
2019-04-10T03:24:25.272Z,4.31
2019-04-10T03:25:24.673Z,4.26
2019-04-10T03:27:19.090Z,4.16
2019-04-10T03:28:17.527Z,4.24
2019-04-10T03:30:12.707Z,4.26
2019-04-10T03:31:11.222Z,4.26
2019-04-10T03:33:06.696Z,4.23
2019-04-10T03:34:06.105Z,4.24
2019-04-10T03:35:57.030Z,4.13
2019-04-10T03:36:56.620Z,4.13
2019-04-10T03:38:59.547Z,4.22
2019-04-10T03:39:49.655Z,4.12
2019-04-10T03:41:42.627Z,4.13
2019-04-10T03:42:43.381Z,4.30
2019-04-10T03:44:35.697Z,4.13
2019-04-10T03:45:36.713Z,4.17
2019-04-10T03:47:28.699Z,4.22
2019-04-10T03:48:29.263Z,4.17
2019-04-10T03:50:21.747Z,4.05
2019-04-10T03:51:22.816Z,4.12
2019-04-10T03:53:14.781Z,4.16
2019-04-10T03:54:15.176Z,4.02
2019-04-10T03:56:07.813Z,4.10
2019-04-10T03:57:07.849Z,4.06
2019-04-10T03:59:02.047Z,4.08
2019-04-10T04:00:01.514Z,4.08
2019-04-10T04:01:53.866Z,3.98
2019-04-10T04:02:53.926Z,4.02
2019-04-10T04:04:47.973Z,3.96
2019-04-10T04:05:46.953Z,4.04
2019-04-10T04:07:40.984Z,4.02
2019-04-10T04:08:39.985Z,3.94
2019-04-10T04:10:32.983Z,3.98
2019-04-10T04:11:33.552Z,3.95
2019-04-10T04:13:26.012Z,3.92
2019-04-10T04:14:26.048Z,3.95
2019-04-10T04:16:19.219Z,3.88
2019-04-10T04:17:20.052Z,3.91
2019-04-10T04:19:12.056Z,3.96
2019-04-10T04:20:12.816Z,4.01
2019-04-10T04:22:06.090Z,3.92
2019-04-10T04:23:05.452Z,3.91
2019-04-10T04:24:58.244Z,3.84
2019-04-10T04:25:58.941Z,3.84
2019-04-10T04:27:51.770Z,3.84
2019-04-10T04:28:51.594Z,3.83
2019-04-10T04:30:44.192Z,3.78
2019-04-10T04:31:44.242Z,3.70
2019-04-10T04:33:37.237Z,3.78
2019-04-10T04:34:37.272Z,3.81
2019-04-10T04:36:30.970Z,3.77
2019-04-10T04:37:30.301Z,3.65
2019-04-10T04:39:26.742Z,3.70
2019-04-10T04:40:23.790Z,3.70
2019-04-10T04:42:17.016Z,3.74
2019-04-10T04:43:16.697Z,3.76
2019-04-10T04:45:09.373Z,3.69
2019-04-10T04:46:10.064Z,3.68
2019-04-10T04:48:02.378Z,3.81
2019-04-10T04:49:02.434Z,3.77
2019-04-10T04:50:55.425Z,3.80
2019-04-10T04:51:55.459Z,3.78
2019-04-10T04:53:48.448Z,3.83
2019-04-10T04:54:48.493Z,3.70
2019-04-10T04:56:42.269Z,3.74
2019-04-10T04:57:42.309Z,3.68
2019-04-10T04:59:34.647Z,3.63
2019-04-10T05:00:34.549Z,3.66
2019-04-10T05:02:28.226Z,3.65
2019-04-10T05:03:27.581Z,3.69
2019-04-10T05:05:20.572Z,3.63
2019-04-10T05:06:20.609Z,3.69
2019-04-10T05:08:13.586Z,3.63
2019-04-10T05:09:25.956Z,3.63
2019-04-10T05:11:06.629Z,3.69
2019-04-10T05:12:07.175Z,3.66
2019-04-10T05:13:59.658Z,3.73
2019-04-10T05:15:00.364Z,3.73
2019-04-10T05:16:52.702Z,3.74
2019-04-10T05:17:53.539Z,3.76
2019-04-10T05:19:46.795Z,3.74
2019-04-10T05:20:49.962Z,3.80
2019-04-10T05:22:39.594Z,3.77
2019-04-10T05:23:38.794Z,3.74
2019-04-10T05:25:31.789Z,3.83
2019-04-10T05:26:32.349Z,3.80
2019-04-10T05:28:24.823Z,3.80
2019-04-10T05:29:25.106Z,3.74
2019-04-10T05:31:19.294Z,3.77
2019-04-10T05:32:18.399Z,3.86
2019-04-10T05:34:11.511Z,3.84
2019-04-10T05:35:11.626Z,3.84
2019-04-10T05:37:05.266Z,3.88
2019-04-10T05:38:04.594Z,3.87
2019-04-10T05:39:57.458Z,3.98
2019-04-10T05:40:57.499Z,3.96
2019-04-10T05:42:50.488Z,3.96
2019-04-10T05:43:50.972Z,3.98
2019-04-10T05:45:43.495Z,4.02
2019-04-10T05:46:43.547Z,4.02
2019-04-10T05:48:36.661Z,4.04
2019-04-10T05:49:37.282Z,4.08
2019-04-10T05:51:29.579Z,4.05
2019-04-10T05:52:29.610Z,4.06
2019-04-10T05:54:22.653Z,4.01
2019-04-10T05:55:22.661Z,4.10
2019-04-10T05:57:15.883Z,4.22
2019-04-10T05:58:15.692Z,4.20
2019-04-10T06:00:08.668Z,4.14
2019-04-10T06:01:09.499Z,4.14
2019-04-10T06:03:01.717Z,4.28
2019-04-10T06:04:01.750Z,4.24
2019-04-10T06:05:54.719Z,4.30
2019-04-10T06:06:54.852Z,4.42
2019-04-10T06:08:47.782Z,4.38
2019-04-10T06:09:55.781Z,4.40
2019-04-10T06:11:42.957Z,4.59
2019-04-10T06:12:40.838Z,4.66
2019-04-10T06:14:34.527Z,4.68
2019-04-10T06:15:34.994Z,4.80
2019-04-10T06:17:26.912Z,4.86
2019-04-10T06:18:27.173Z,4.97
2019-04-10T06:20:20.862Z,4.97
2019-04-10T06:21:20.990Z,5.10
2019-04-10T06:23:12.910Z,5.15
2019-04-10T06:24:14.102Z,5.36
2019-04-10T06:26:06.879Z,5.48
2019-04-10T06:27:06.007Z,5.57
2019-04-10T06:28:59.061Z,5.91
2019-04-10T06:29:59.438Z,6.17
2019-04-10T06:31:52.807Z,6.79
2019-04-10T06:32:53.692Z,7.05
2019-04-10T06:34:46.110Z,7.63
2019-04-10T06:35:46.824Z,8.03
2019-04-10T06:37:38.581Z,9.26
2019-04-10T06:38:39.141Z,9.59
2019-04-10T06:40:31.634Z,10.57
2019-04-10T06:41:32.639Z,11.12
2019-04-10T06:43:25.213Z,11.65
2019-04-10T06:44:25.833Z,11.65
2019-04-10T06:46:17.710Z,12.27
2019-04-10T06:47:18.133Z,12.53
2019-04-10T06:49:10.727Z,13.05
2019-04-10T06:50:10.788Z,13.04
2019-04-10T06:52:03.796Z,13.38
2019-04-10T06:53:04.145Z,12.68
2019-04-10T06:54:57.362Z,12.82
2019-04-10T06:55:56.865Z,12.43
2019-04-10T06:57:55.042Z,12.02
2019-04-10T06:58:49.981Z,12.12
2019-04-10T07:00:45.631Z,12.67
2019-04-10T07:01:48.730Z,12.91
2019-04-10T07:03:50.807Z,12.80
2019-04-10T07:04:43.998Z,13.30
2019-04-10T07:06:46.245Z,14.11
2019-04-10T07:07:42.350Z,14.43
2019-04-10T07:09:25.222Z,14.18
2019-04-10T07:10:28.634Z,13.59
2019-04-10T07:12:15.083Z,13.60
2019-04-10T07:13:15.540Z,13.71
2019-04-10T07:15:08.490Z,14.41
2019-04-10T07:16:09.553Z,14.59
2019-04-10T07:18:01.191Z,15.11
2019-04-10T07:19:04.238Z,15.02
2019-04-10T07:20:58.321Z,15.52
2019-04-10T07:21:55.255Z,15.44
2019-04-10T07:23:47.400Z,15.21
2019-04-10T07:24:48.203Z,15.03
2019-04-10T07:26:43.692Z,15.35
2019-04-10T07:27:41.744Z,15.68
2019-04-10T07:29:34.155Z,16.24
2019-04-10T07:30:33.887Z,16.71
2019-04-10T07:32:26.469Z,17.22
2019-04-10T07:33:26.688Z,16.94
2019-04-10T07:35:21.538Z,17.51
2019-04-10T07:36:20.346Z,17.90
2019-04-10T07:38:12.592Z,17.52
2019-04-10T07:39:13.120Z,17.68
2019-04-10T07:41:12.803Z,18.44
2019-04-10T07:42:06.198Z,18.60
2019-04-10T07:43:58.799Z,17.23
2019-04-10T07:44:58.744Z,17.27
2019-04-10T07:46:52.847Z,18.15
2019-04-10T07:47:51.819Z,18.18
2019-04-10T07:49:44.833Z,17.87
2019-04-10T07:50:46.758Z,17.74
2019-04-10T07:52:37.864Z,18.16
2019-04-10T07:53:37.932Z,18.89
2019-04-10T07:55:31.009Z,19.45
2019-04-10T07:56:31.258Z,18.84
2019-04-10T07:58:23.998Z,18.62
2019-04-10T07:59:25.053Z,19.02
2019-04-10T08:01:18.060Z,18.98
2019-04-10T08:02:17.132Z,18.96
2019-04-10T08:04:10.436Z,19.59
2019-04-10T08:05:10.269Z,19.76
2019-04-10T08:07:03.211Z,19.39
2019-04-10T08:08:03.256Z,19.47
2019-04-10T08:09:56.277Z,19.31
2019-04-10T08:10:57.301Z,18.83
2019-04-10T08:12:53.361Z,18.71
2019-04-10T08:13:49.384Z,18.98
2019-04-10T08:15:43.318Z,18.93
2019-04-10T08:16:43.377Z,18.65
2019-04-10T08:18:35.451Z,18.77
2019-04-10T08:19:35.520Z,18.23
2019-04-10T08:21:29.446Z,18.31
2019-04-10T08:22:28.723Z,18.56
2019-04-10T08:24:21.604Z,18.25
2019-04-10T08:25:22.712Z,18.37
2019-04-10T08:27:14.692Z,17.45
2019-04-10T08:28:15.582Z,18.15
2019-04-10T08:30:10.674Z,18.78
2019-04-10T08:31:08.647Z,18.83
2019-04-10T08:33:02.543Z,17.78
2019-04-10T08:34:01.184Z,17.79
2019-04-10T08:35:54.799Z,17.90
2019-04-10T08:36:56.487Z,18.10
2019-04-10T08:38:46.978Z,18.55
2019-04-10T08:39:49.215Z,18.75
2019-04-10T08:41:40.018Z,19.59
2019-04-10T08:42:40.705Z,19.08
2019-04-10T08:44:33.119Z,19.22
2019-04-10T08:45:40.564Z,19.63
2019-04-10T08:47:26.923Z,20.51
2019-04-10T08:48:29.810Z,20.56
2019-04-10T08:50:19.708Z,19.88
2019-04-10T08:51:19.302Z,20.04
2019-04-10T08:53:12.299Z,20.26
2019-04-10T08:54:12.367Z,20.24
2019-04-10T08:56:06.507Z,19.11
2019-04-10T08:57:05.436Z,18.34
2019-04-10T08:58:59.285Z,18.05
2019-04-10T08:59:58.520Z,17.36
2019-04-10T09:01:51.566Z,17.56
2019-04-10T09:02:52.615Z,17.78
2019-04-10T09:04:44.770Z,17.78
2019-04-10T09:05:44.922Z,17.42
2019-04-10T09:07:38.199Z,17.01
2019-04-10T09:08:37.717Z,16.79
2019-04-10T09:10:30.735Z,17.31
2019-04-10T09:11:32.614Z,16.69
2019-04-10T09:13:24.304Z,15.11
2019-04-10T09:14:23.862Z,14.58
2019-04-10T09:16:16.854Z,14.00
2019-04-10T09:17:17.376Z,13.99
2019-04-10T09:19:09.943Z,13.41
2019-04-10T09:20:10.879Z,13.19
2019-04-10T09:22:03.767Z,12.86
2019-04-10T09:23:21.495Z,12.86
2019-04-10T09:24:56.046Z,12.68
2019-04-10T09:25:56.093Z,12.53
2019-04-10T09:27:49.686Z,12.10
2019-04-10T09:28:49.153Z,12.17
2019-04-10T09:30:42.757Z,12.21
2019-04-10T09:31:42.202Z,12.28
2019-04-10T09:33:35.194Z,12.42
2019-04-10T09:34:36.003Z,12.45
2019-04-10T09:36:29.146Z,12.35
2019-04-10T09:37:28.329Z,12.32
2019-04-10T09:39:21.313Z,12.37
2019-04-10T09:40:22.361Z,12.45
2019-04-10T09:42:14.908Z,12.53
2019-04-10T09:43:15.502Z,12.68
2019-04-10T09:45:07.401Z,12.62
2019-04-10T09:46:08.444Z,12.54
2019-04-10T09:48:00.465Z,12.53
2019-04-10T09:49:00.533Z,12.27
2019-04-10T09:50:53.486Z,12.39
2019-04-10T09:51:54.377Z,12.42
2019-04-10T09:53:46.556Z,12.37
2019-04-10T09:54:46.770Z,12.13
2019-04-10T09:56:39.608Z,12.17
2019-04-10T09:57:39.642Z,12.22
2019-04-10T09:59:36.423Z,12.22
2019-04-10T10:00:32.690Z,12.20
2019-04-10T10:02:25.712Z,12.03
2019-04-10T10:03:26.282Z,12.04
2019-04-10T10:05:18.741Z,12.10
2019-04-10T10:06:27.043Z,12.00
2019-04-10T10:08:11.779Z,12.04
2019-04-10T10:09:12.664Z,12.02
2019-04-10T10:11:06.046Z,12.09
2019-04-10T10:12:04.878Z,12.06
2019-04-10T10:13:58.467Z,12.21
2019-04-10T10:14:58.117Z,12.15
2019-04-10T10:16:50.915Z,12.09
2019-04-10T10:17:50.975Z,12.17
2019-04-10T10:19:43.979Z,12.24
2019-04-10T10:20:44.078Z,12.20
2019-04-10T10:22:37.154Z,12.27
2019-04-10T10:23:37.997Z,12.21
2019-04-10T10:25:30.987Z,12.25
2019-04-10T10:26:30.188Z,12.28
2019-04-10T10:28:23.109Z,12.21
2019-04-10T10:29:23.812Z,12.43
2019-04-10T10:31:16.877Z,12.45
2019-04-10T10:32:17.122Z,12.54
2019-04-10T10:34:10.281Z,12.39
2019-04-10T10:35:09.755Z,12.10
2019-04-10T10:37:03.905Z,12.28
2019-04-10T10:38:03.850Z,12.31
2019-04-10T10:39:55.929Z,12.22
2019-04-10T10:40:56.957Z,12.12
2019-04-10T10:42:48.828Z,11.91
2019-04-10T10:43:48.927Z,12.03
2019-04-10T10:45:42.821Z,12.21
2019-04-10T10:46:41.931Z,12.27
2019-04-10T10:48:35.785Z,12.27
2019-04-10T10:49:34.972Z,12.13
2019-04-10T10:51:28.902Z,12.07
2019-04-10T10:52:28.015Z,12.09
2019-04-10T10:54:21.207Z,12.00
2019-04-10T10:55:21.335Z,12.07
2019-04-10T10:57:15.128Z,12.12
2019-04-10T10:58:14.106Z,12.10
2019-04-10T11:00:08.193Z,12.29
2019-04-10T11:01:07.426Z,12.49
2019-04-10T11:03:00.268Z,12.64
2019-04-10T11:04:00.186Z,12.61
2019-04-10T11:05:53.181Z,12.54
2019-04-10T11:08:46.244Z,12.55
2019-04-10T11:09:46.275Z,12.54
2019-04-10T11:11:39.257Z,12.49
2019-04-10T11:12:39.319Z,12.64
2019-04-10T11:14:32.320Z,12.65
2019-04-10T11:15:32.362Z,12.67
2019-04-10T11:17:25.571Z,12.65
2019-04-10T11:18:26.209Z,12.85
2019-04-10T11:20:19.824Z,13.22
2019-04-10T11:21:18.452Z,13.47
2019-04-10T11:23:12.055Z,13.52
2019-04-10T11:24:11.504Z,13.25
2019-04-10T11:26:04.718Z,13.25
2019-04-10T11:27:04.537Z,13.30
2019-04-10T11:28:57.554Z,13.39
2019-04-10T11:29:57.658Z,13.53
2019-04-10T11:31:51.269Z,13.19
2019-04-10T11:32:52.344Z,12.93
2019-04-10T11:34:44.353Z,12.91
2019-04-10T11:35:45.759Z,12.97
2019-04-10T11:37:43.432Z,13.04
2019-04-10T11:38:37.551Z,13.00
2019-04-10T11:40:31.753Z,12.97
2019-04-10T11:41:31.231Z,12.90
2019-04-10T11:43:24.880Z,13.23
2019-04-10T11:44:24.778Z,13.15
2019-04-10T11:46:16.910Z,13.42
2019-04-10T11:47:17.340Z,13.68
2019-04-10T11:49:11.063Z,13.52
2019-04-10T11:50:13.515Z,13.44
2019-04-10T11:52:03.996Z,13.47
2019-04-10T11:53:02.680Z,13.60
2019-04-10T11:55:05.159Z,13.50
2019-04-10T11:55:57.025Z,13.31
2019-04-10T11:57:49.726Z,13.49
2019-04-10T11:58:54.037Z,13.50
2019-04-10T12:00:50.325Z,13.12
2019-04-10T12:01:43.957Z,13.18
2019-04-10T12:03:36.482Z,13.38
2019-04-10T12:04:44.946Z,13.39
2019-04-10T12:06:29.761Z,13.15
2019-04-10T12:07:58.488Z,13.15
2019-04-10T12:12:13.780Z,12.72
2019-04-10T12:13:16.424Z,12.79
2019-04-10T12:15:07.935Z,12.98
2019-04-10T12:16:07.150Z,13.15
2019-04-10T12:18:00.279Z,13.27
2019-04-10T12:18:59.929Z,13.30
2019-04-10T12:20:53.583Z,13.49
2019-04-10T12:21:53.836Z,13.44
2019-04-10T12:23:45.988Z,13.42
2019-04-10T12:24:49.665Z,13.56
2019-04-10T12:26:39.938Z,13.60
2019-04-10T12:27:39.113Z,13.46
2019-04-10T12:29:33.005Z,13.22
2019-04-10T12:30:32.212Z,13.13
2019-04-10T12:32:25.084Z,12.90
2019-04-10T12:33:25.456Z,12.91
2019-04-10T12:35:18.143Z,12.97
2019-04-10T12:36:18.353Z,13.11
2019-04-10T12:38:13.233Z,13.37
2019-04-10T12:39:12.084Z,13.52
2019-04-10T12:41:04.239Z,13.56
2019-04-10T12:42:04.263Z,13.65
2019-04-10T12:43:57.253Z,13.28
2019-04-10T12:44:57.807Z,13.38
2019-04-10T12:46:51.152Z,13.49
2019-04-10T12:47:50.355Z,13.50
2019-04-10T12:49:43.598Z,13.41
2019-04-10T12:50:43.417Z,13.38
2019-04-10T12:52:36.406Z,13.28
2019-04-10T12:53:36.453Z,13.20
2019-04-10T12:55:29.432Z,12.98
2019-04-10T12:56:30.375Z,13.05
2019-04-10T12:58:22.536Z,12.98
2019-04-10T12:59:23.507Z,12.93
2019-04-10T13:01:16.331Z,12.91
2019-04-10T13:02:16.431Z,12.90
2019-04-10T13:04:08.596Z,12.91
2019-04-10T13:05:09.160Z,12.94
2019-04-10T13:07:01.610Z,12.98
2019-04-10T13:08:14.595Z,12.98
2019-04-10T13:09:54.684Z,13.22
2019-04-10T13:10:54.712Z,13.35
2019-04-10T13:12:47.697Z,13.03
2019-04-10T13:13:48.483Z,12.91
2019-04-10T13:15:40.756Z,12.97
2019-04-10T13:16:41.352Z,13.01
2019-04-10T13:18:33.796Z,12.85
2019-04-10T13:19:34.373Z,12.93
2019-04-10T13:21:26.822Z,12.86
2019-04-10T13:22:26.882Z,12.95
2019-04-10T13:24:19.888Z,12.94
2019-04-10T13:25:19.951Z,12.97
2019-04-10T13:27:12.902Z,12.97
2019-04-10T13:28:12.962Z,12.98
2019-04-10T13:30:06.990Z,12.85
2019-04-10T13:31:06.007Z,13.01
2019-04-10T13:32:58.989Z,13.12
2019-04-10T13:33:59.047Z,13.09
2019-04-10T13:35:53.275Z,13.16
2019-04-10T13:36:52.109Z,12.98
2019-04-10T13:38:45.110Z,12.94
2019-04-10T13:39:45.136Z,12.93
2019-04-10T13:41:38.685Z,12.85
2019-04-10T13:42:38.946Z,12.67
2019-04-10T13:44:31.178Z,12.49
2019-04-10T13:45:31.241Z,12.45
2019-04-10T13:47:24.248Z,12.42
2019-04-10T13:48:25.065Z,12.47
2019-04-10T13:50:17.279Z,12.67
2019-04-10T13:51:17.330Z,12.73
2019-04-10T13:53:10.365Z,12.79
2019-04-10T13:54:10.428Z,12.87
2019-04-10T13:56:04.395Z,12.87
2019-04-10T13:57:03.568Z,12.93
2019-04-10T13:58:56.426Z,12.76
2019-04-10T13:59:57.458Z,12.72
2019-04-10T14:01:50.206Z,12.90
2019-04-10T14:02:50.024Z,12.98
2019-04-10T14:04:42.971Z,13.00
2019-04-10T14:05:43.271Z,12.94
2019-04-10T14:07:36.067Z,12.83
2019-04-10T14:08:56.165Z,12.79
2019-04-10T14:10:29.452Z,12.93
2019-04-10T14:11:29.137Z,12.90
2019-04-10T14:13:21.983Z,12.90
2019-04-10T14:14:21.700Z,12.91
2019-04-10T14:16:14.834Z,12.79
2019-04-10T14:17:14.768Z,12.82
2019-04-10T14:19:07.790Z,12.75
2019-04-10T14:20:07.894Z,12.64
2019-04-10T14:22:01.802Z,12.72
2019-04-10T14:23:00.828Z,12.67
2019-04-10T14:24:53.827Z,12.62
2019-04-10T14:25:53.992Z,12.70
2019-04-10T14:27:46.862Z,12.65
2019-04-10T14:28:46.920Z,12.61
2019-04-10T14:30:39.934Z,12.94
2019-04-10T14:31:40.593Z,13.00
2019-04-10T14:33:32.954Z,12.91
2019-04-10T14:34:33.012Z,12.98
2019-04-10T14:36:26.032Z,12.93
2019-04-10T14:37:26.066Z,12.83
2019-04-10T14:39:21.205Z,12.73
2019-04-10T14:40:19.941Z,12.68
2019-04-10T14:42:12.119Z,12.64
2019-04-10T14:43:12.419Z,12.70
2019-04-10T14:45:05.606Z,12.65
2019-04-10T14:46:05.195Z,12.80
2019-04-10T14:47:58.282Z,12.98
2019-04-10T14:48:58.237Z,12.97
2019-04-10T14:50:51.338Z,12.97
2019-04-10T14:51:51.278Z,12.90
2019-04-10T14:53:44.290Z,12.85
2019-04-10T14:54:44.325Z,12.75
2019-04-10T14:56:37.841Z,12.53
2019-04-10T14:57:37.396Z,12.43
2019-04-10T14:59:31.696Z,12.45
2019-04-10T15:00:30.762Z,12.43
2019-04-10T15:02:24.409Z,12.55
2019-04-10T15:03:24.361Z,12.54
2019-04-10T15:05:17.511Z,12.64
2019-04-10T15:06:18.220Z,12.55
2019-04-10T15:08:09.536Z,12.49
2019-04-10T15:09:19.152Z,12.49
2019-04-10T15:11:02.571Z,12.67
2019-04-10T15:12:02.821Z,12.73
2019-04-10T15:13:55.880Z,12.73
2019-04-10T15:14:56.200Z,12.65
2019-04-10T15:16:55.694Z,12.65
2019-04-10T15:17:48.772Z,12.65
2019-04-10T15:19:42.672Z,12.61
2019-04-10T15:20:41.865Z,12.55
2019-04-10T15:22:35.793Z,12.49
2019-04-10T15:23:35.854Z,12.50
2019-04-10T15:25:27.970Z,12.47
2019-04-10T15:26:28.169Z,12.47
2019-04-10T15:28:20.815Z,12.46
2019-04-10T15:29:21.329Z,12.32
2019-04-10T15:31:13.874Z,12.42
2019-04-10T15:32:14.654Z,12.42
2019-04-10T15:34:06.919Z,12.27
2019-04-10T15:35:06.972Z,12.32
2019-04-10T15:37:00.439Z,12.40
2019-04-10T15:37:59.992Z,12.47
2019-04-10T15:39:53.923Z,12.65
2019-04-10T15:40:53.043Z,12.80
2019-04-10T15:42:46.107Z,12.86
2019-04-10T15:43:46.076Z,12.94
2019-04-10T15:45:39.977Z,12.70
2019-04-10T15:46:39.399Z,12.57
2019-04-10T15:48:32.106Z,12.54
2019-04-10T15:49:32.444Z,12.40
2019-04-10T15:51:25.171Z,12.37
2019-04-10T15:52:25.211Z,12.29
2019-04-10T15:54:18.205Z,12.28
2019-04-10T15:55:18.257Z,12.29
2019-04-10T15:57:11.255Z,12.27
2019-04-10T15:58:11.291Z,12.35
2019-04-10T16:00:05.100Z,12.15
2019-04-10T16:01:04.333Z,12.24
2019-04-10T16:02:57.391Z,12.28
2019-04-10T16:03:57.376Z,12.37
2019-04-10T16:05:50.387Z,12.15
2019-04-10T16:06:50.430Z,12.17
2019-04-10T16:08:43.418Z,12.22
2019-04-10T16:09:47.419Z,12.12
2019-04-10T16:11:36.496Z,12.09
2019-04-10T16:12:36.532Z,12.04
2019-04-10T16:14:31.392Z,12.10
2019-04-10T16:15:29.574Z,12.07
2019-04-10T16:17:23.939Z,12.12
2019-04-10T16:18:23.126Z,12.06
2019-04-10T16:20:15.604Z,12.02
2019-04-10T16:21:15.919Z,12.04
2019-04-10T16:23:08.674Z,12.06
2019-04-10T16:24:08.824Z,11.94
2019-04-10T16:26:02.764Z,12.02
2019-04-10T16:27:01.767Z,11.95
2019-04-10T16:28:55.721Z,11.90
2019-04-10T16:29:54.808Z,11.99
2019-04-10T16:31:48.328Z,11.91
2019-04-10T16:32:48.360Z,11.91
2019-04-10T16:34:41.362Z,11.87
2019-04-10T16:35:41.405Z,11.80
2019-04-10T16:37:35.407Z,11.78
2019-04-10T16:38:34.443Z,11.73
2019-04-10T16:40:27.434Z,11.75
2019-04-10T16:41:29.539Z,11.75
2019-04-10T16:43:20.490Z,11.70
2019-04-10T16:44:21.361Z,11.69
2019-04-10T16:46:13.517Z,11.66
2019-04-10T16:47:14.156Z,11.69
2019-04-10T16:49:06.622Z,11.70
2019-04-10T16:50:06.613Z,11.63
2019-04-10T16:52:00.793Z,11.59
2019-04-10T16:52:59.660Z,11.62
2019-04-10T16:54:53.447Z,11.52
2019-04-10T16:55:53.377Z,11.51
2019-04-10T16:57:45.719Z,11.51
2019-04-10T16:58:45.764Z,11.50
2019-04-10T17:00:39.710Z,11.44
2019-04-10T17:01:39.214Z,11.43
2019-04-10T17:03:31.790Z,11.50
2019-04-10T17:04:31.975Z,11.41
2019-04-10T17:06:24.845Z,11.50
2019-04-10T17:07:25.228Z,11.40
2019-04-10T17:09:18.710Z,11.43
2019-04-10T17:10:22.391Z,11.41
2019-04-10T17:12:11.655Z,11.22
2019-04-10T17:13:10.974Z,11.19
2019-04-10T17:15:04.011Z,11.25
2019-04-10T17:16:05.064Z,11.27
2019-04-10T17:17:57.518Z,11.27
2019-04-10T17:18:57.561Z,11.07
2019-04-10T17:20:50.964Z,11.17
2019-04-10T17:21:50.601Z,11.22
2019-04-10T17:23:44.787Z,11.05
2019-04-10T17:24:43.656Z,11.25
2019-04-10T17:26:37.146Z,11.08
2019-04-10T17:27:37.496Z,11.00
2019-04-10T17:29:29.683Z,11.00
2019-04-10T17:30:29.730Z,11.00
2019-04-10T17:32:23.437Z,10.96
2019-04-10T17:33:25.073Z,10.92
2019-04-10T17:35:15.938Z,10.89
2019-04-10T17:36:16.901Z,10.82
2019-04-10T17:38:10.129Z,10.82
2019-04-10T17:39:09.088Z,10.71
2019-04-10T17:41:04.167Z,10.76
2019-04-10T17:42:01.928Z,10.75
2019-04-10T17:43:55.076Z,10.64
2019-04-10T17:44:55.950Z,10.72
2019-04-10T17:46:49.105Z,10.61
2019-04-10T17:47:49.243Z,10.59
2019-04-10T17:49:41.332Z,10.60
2019-04-10T17:50:41.487Z,10.54
2019-04-10T17:52:37.187Z,10.38
2019-04-10T17:53:34.065Z,10.37
2019-04-10T17:55:27.400Z,10.51
2019-04-10T17:56:28.151Z,10.37
2019-04-10T17:58:21.200Z,10.31
2019-04-10T17:59:20.448Z,10.34
2019-04-10T18:01:13.144Z,10.26
2019-04-10T18:02:13.764Z,10.20
2019-04-10T18:04:07.525Z,10.26
2019-04-10T18:05:06.536Z,10.15
2019-04-10T18:06:59.659Z,10.15
2019-04-10T18:07:59.287Z,10.12
2019-04-10T18:09:52.272Z,9.97
2019-04-10T18:10:54.143Z,9.98
2019-04-10T18:12:46.068Z,9.94
2019-04-10T18:13:45.364Z,9.91
2019-04-10T18:15:38.380Z,9.92
2019-04-10T18:16:38.413Z,9.89
2019-04-10T18:18:31.960Z,9.72
2019-04-10T18:19:32.401Z,9.77
2019-04-10T18:21:24.969Z,9.65
2019-04-10T18:22:25.008Z,9.59
2019-04-10T18:24:17.978Z,9.64
2019-04-10T18:25:18.768Z,9.65
2019-04-10T18:27:12.142Z,9.54
2019-04-10T18:28:11.655Z,9.54
2019-04-10T18:30:04.073Z,9.39
2019-04-10T18:31:04.946Z,9.48
2019-04-10T18:32:58.077Z,9.46
2019-04-10T18:33:57.159Z,9.34
2019-04-10T18:35:51.105Z,9.40
2019-04-10T18:36:51.103Z,9.31
2019-04-10T18:38:43.884Z,9.22
2019-04-10T18:39:43.234Z,9.23
2019-04-10T18:41:36.237Z,9.25
2019-04-10T18:42:37.346Z,9.19
2019-04-10T18:44:29.292Z,9.22
2019-04-10T18:45:30.127Z,9.23
2019-04-10T18:47:22.289Z,9.19
2019-04-10T18:48:22.874Z,9.21
2019-04-10T18:50:16.126Z,9.08
2019-04-10T18:51:16.040Z,9.03
2019-04-10T18:53:08.773Z,8.99